sensor_id;sensor_type;location;lat;lon;timestamp;pressure;altitude;pressure_sealevel;temperature;humidity
41703;BME280;861;48.808;9.006;2023-11-21T05:13:30;96498.41;;;8.92;94.53
41703;BME280;861;48.808;9.006;2023-11-21T05:16:43;96501.91;;;9.31;90.98
41703;BME280;861;48.808;9.006;2023-11-21T05:19:59;96504.63;;;9.38;90.18
41703;BME280;861;48.808;9.006;2023-11-21T05:37:56;96526.72;;;9.61;87.31
41703;BME280;861;48.808;9.006;2023-11-21T05:40:23;96525.91;;;9.68;87.22
41703;BME280;861;48.808;9.006;2023-11-21T05:42:52;96529.47;;;9.44;89.17
41703;BME280;861;48.808;9.006;2023-11-21T05:45:19;96527.91;;;9.53;88.94
41703;BME280;861;48.808;9.006;2023-11-21T05:47:47;96533.22;;;10.09;90.98
41703;BME280;861;48.808;9.006;2023-11-21T05:50:16;96533.09;;;10.41;88.14
41703;BME280;861;48.808;9.006;2023-11-21T05:52:46;96535.06;;;10.33;85.42
41703;BME280;861;48.808;9.006;2023-11-21T05:55:15;96535.47;;;10.32;83.30
41703;BME280;861;48.808;9.006;2023-11-21T05:57:44;96540.19;;;10.07;84.45
41703;BME280;861;48.808;9.006;2023-11-21T06:00:14;96551.91;;;9.86;86.22
41703;BME280;861;48.808;9.006;2023-11-21T06:02:53;96549.56;;;9.88;86.07
41703;BME280;861;48.808;9.006;2023-11-21T06:05:24;96549.97;;;9.80;86.63
41703;BME280;861;48.808;9.006;2023-11-21T06:07:56;96558.50;;;9.85;86.25
41703;BME280;861;48.808;9.006;2023-11-21T06:46:35;96585.34;;;9.66;87.37
41703;BME280;861;48.808;9.006;2023-11-21T06:49:01;96585.31;;;9.73;87.02
41703;BME280;861;48.808;9.006;2023-11-21T06:51:28;96591.53;;;9.80;86.21
41703;BME280;861;48.808;9.006;2023-11-21T06:53:55;96595.38;;;9.93;85.78
41703;BME280;861;48.808;9.006;2023-11-21T06:56:22;96598.88;;;10.01;85.80
41703;BME280;861;48.808;9.006;2023-11-21T06:58:48;96597.72;;;10.16;85.06
41703;BME280;861;48.808;9.006;2023-11-21T07:01:15;96594.19;;;10.19;84.38
41703;BME280;861;48.808;9.006;2023-11-21T17:03:00;97057.06;;;9.02;96.85
41703;BME280;861;48.808;9.006;2023-11-21T17:05:30;97061.78;;;9.08;97.74
41703;BME280;861;48.808;9.006;2023-11-21T17:07:58;97064.91;;;9.10;95.30
41703;BME280;861;48.808;9.006;2023-11-21T17:10:24;97066.28;;;9.38;94.60
41703;BME280;861;48.808;9.006;2023-11-21T17:12:51;97073.81;;;9.55;93.70
41703;BME280;861;48.808;9.006;2023-11-21T17:15:18;97081.69;;;9.70;91.32
41703;BME280;861;48.808;9.006;2023-11-21T17:17:45;97074.38;;;9.81;89.78
41703;BME280;861;48.808;9.006;2023-11-21T17:20:12;97082.22;;;9.93;89.55
41703;BME280;861;48.808;9.006;2023-11-21T17:22:40;97087.38;;;10.09;88.18
41703;BME280;861;48.808;9.006;2023-11-21T17:25:09;97089.75;;;10.14;87.46
41703;BME280;861;48.808;9.006;2023-11-21T17:27:37;97088.97;;;10.17;86.97
41703;BME280;861;48.808;9.006;2023-11-21T17:30:04;97085.47;;;10.13;87.38
41703;BME280;861;48.808;9.006;2023-11-21T17:32:33;97092.13;;;10.26;86.44
41703;BME280;861;48.808;9.006;2023-11-21T17:35:28;97102.63;;;10.24;86.74
41703;BME280;861;48.808;9.006;2023-11-21T17:38:53;97102.22;;;10.22;87.03
41703;BME280;861;48.808;9.006;2023-11-21T17:42:12;97112.31;;;10.21;87.26
41703;BME280;861;48.808;9.006;2023-11-21T17:44:40;97109.59;;;10.21;87.51
41703;BME280;861;48.808;9.006;2023-11-21T17:47:07;97122.00;;;10.15;87.28
41703;BME280;861;48.808;9.006;2023-11-21T17:49:36;97123.22;;;10.25;86.59
41703;BME280;861;48.808;9.006;2023-11-21T17:52:03;97114.28;;;10.24;87.12
41703;BME280;861;48.808;9.006;2023-11-21T17:54:30;97117.06;;;10.38;85.48
41703;BME280;861;48.808;9.006;2023-11-21T17:56:56;97124.34;;;10.17;87.52
41703;BME280;861;48.808;9.006;2023-11-21T17:59:23;97117.41;;;10.26;86.95
41703;BME280;861;48.808;9.006;2023-11-21T18:01:50;97125.19;;;10.28;86.68
41703;BME280;861;48.808;9.006;2023-11-21T18:04:17;97129.16;;;10.44;86.09
41703;BME280;861;48.808;9.006;2023-11-21T18:06:43;97128.34;;;10.40;85.98
41703;BME280;861;48.808;9.006;2023-11-21T18:09:32;97134.72;;;10.04;88.65
41703;BME280;861;48.808;9.006;2023-11-21T18:12:00;97141.06;;;10.15;88.16
41703;BME280;861;48.808;9.006;2023-11-21T18:14:30;97146.47;;;10.12;88.21
41703;BME280;861;48.808;9.006;2023-11-21T18:16:57;97142.25;;;10.18;87.71
41703;BME280;861;48.808;9.006;2023-11-21T18:19:24;97149.19;;;10.12;88.92
41703;BME280;861;48.808;9.006;2023-11-21T18:21:51;97154.44;;;10.41;87.65
41703;BME280;861;48.808;9.006;2023-11-21T18:24:17;97150.94;;;9.87;89.88
41703;BME280;861;48.808;9.006;2023-11-21T18:26:44;97157.00;;;10.17;89.73
41703;BME280;861;48.808;9.006;2023-11-21T18:29:12;97165.00;;;9.96;90.48
41703;BME280;861;48.808;9.006;2023-11-21T18:31:45;97165.69;;;9.86;91.55
41703;BME280;861;48.808;9.006;2023-11-21T18:34:12;97169.63;;;9.92;90.46
41703;BME280;861;48.808;9.006;2023-11-21T18:36:41;97173.88;;;9.89;90.09
41703;BME280;861;48.808;9.006;2023-11-21T18:39:10;97169.22;;;9.90;90.36
41703;BME280;861;48.808;9.006;2023-11-21T18:41:42;97168.28;;;9.68;91.41
41703;BME280;861;48.808;9.006;2023-11-21T18:44:10;97177.38;;;9.86;90.59
41703;BME280;861;48.808;9.006;2023-11-21T18:46:40;97176.56;;;9.86;90.95
41703;BME280;861;48.808;9.006;2023-11-21T18:49:07;97183.81;;;9.71;92.12
41703;BME280;861;48.808;9.006;2023-11-21T18:51:34;97188.84;;;9.69;92.09
41703;BME280;861;48.808;9.006;2023-11-21T18:54:04;97188.00;;;10.05;90.77
41703;BME280;861;48.808;9.006;2023-11-21T18:57:12;97189.69;;;9.73;91.71
41703;BME280;861;48.808;9.006;2023-11-21T19:00:43;97183.81;;;9.71;92.69
41703;BME280;861;48.808;9.006;2023-11-21T19:03:36;97198.72;;;9.84;93.03
41703;BME280;861;48.808;9.006;2023-11-21T19:07:04;97190.59;;;9.88;92.41
41703;BME280;861;48.808;9.006;2023-11-21T19:13:08;97209.91;;;10.19;89.17
41703;BME280;861;48.808;9.006;2023-11-21T19:15:43;97216.47;;;10.18;88.98
41703;BME280;861;48.808;9.006;2023-11-21T19:18:36;97211.41;;;10.17;89.00
41703;BME280;861;48.808;9.006;2023-11-21T19:21:34;97217.47;;;10.00;90.06
41703;BME280;861;48.808;9.006;2023-11-21T19:24:20;97226.31;;;10.33;87.83
41703;BME280;861;48.808;9.006;2023-11-21T19:27:07;97228.50;;;10.14;88.71
41703;BME280;861;48.808;9.006;2023-11-21T19:29:57;97235.44;;;10.08;89.56
41703;BME280;861;48.808;9.006;2023-11-21T19:32:42;97236.31;;;10.19;87.82
41703;BME280;861;48.808;9.006;2023-11-21T19:35:16;97232.38;;;10.13;87.71
41703;BME280;861;48.808;9.006;2023-11-21T19:37:51;97233.06;;;10.06;89.46
41703;BME280;861;48.808;9.006;2023-11-21T19:40:18;97242.94;;;10.21;88.24
41703;BME280;861;48.808;9.006;2023-11-21T19:42:49;97238.63;;;10.17;86.70
41703;BME280;861;48.808;9.006;2023-11-21T19:45:16;97238.78;;;10.38;85.60
41703;BME280;861;48.808;9.006;2023-11-21T19:47:45;97241.78;;;10.22;87.16
41703;BME280;861;48.808;9.006;2023-11-21T19:50:12;97247.41;;;10.00;87.45
41703;BME280;861;48.808;9.006;2023-11-21T19:52:39;97244.75;;;10.07;86.62
41703;BME280;861;48.808;9.006;2023-11-21T19:55:06;97253.19;;;9.95;88.06
41703;BME280;861;48.808;9.006;2023-11-21T19:57:35;97251.34;;;10.06;86.85
41703;BME280;861;48.808;9.006;2023-11-21T20:00:05;97255.81;;;9.84;87.76
41703;BME280;861;48.808;9.006;2023-11-21T20:02:33;97263.00;;;9.66;89.67
41703;BME280;861;48.808;9.006;2023-11-21T20:05:00;97262.75;;;9.78;88.81
41703;BME280;861;48.808;9.006;2023-11-21T20:07:27;97261.28;;;9.88;88.40
41703;BME280;861;48.808;9.006;2023-11-21T20:09:55;97274.06;;;9.84;88.03
41703;BME280;861;48.808;9.006;2023-11-21T20:12:21;97279.09;;;9.82;87.69
41703;BME280;861;48.808;9.006;2023-11-21T20:14:48;97288.72;;;9.72;88.84
41703;BME280;861;48.808;9.006;2023-11-21T20:17:27;97285.41;;;9.89;87.63
41703;BME280;861;48.808;9.006;2023-11-21T20:19:54;97285.13;;;9.65;89.15
41703;BME280;861;48.808;9.006;2023-11-21T20:22:21;97290.44;;;9.51;91.11
41703;BME280;861;48.808;9.006;2023-11-21T20:24:48;97290.06;;;9.52;89.88
41703;BME280;861;48.808;9.006;2023-11-21T20:27:15;97284.66;;;9.92;87.57
41703;BME280;861;48.808;9.006;2023-11-21T20:29:44;97293.47;;;9.82;87.41
41703;BME280;861;48.808;9.006;2023-11-21T20:32:11;97301.78;;;9.60;89.20
41703;BME280;861;48.808;9.006;2023-11-21T20:34:38;97304.06;;;9.54;89.83
41703;BME280;861;48.808;9.006;2023-11-21T20:37:06;97314.22;;;9.61;89.10
41703;BME280;861;48.808;9.006;2023-11-21T20:39:33;97309.75;;;9.42;89.31
41703;BME280;861;48.808;9.006;2023-11-21T20:42:02;97315.34;;;9.56;89.13
41703;BME280;861;48.808;9.006;2023-11-21T20:44:30;97319.88;;;9.45;90.05
41703;BME280;861;48.808;9.006;2023-11-21T20:46:57;97313.41;;;9.57;89.30
41703;BME280;861;48.808;9.006;2023-11-21T20:49:24;97320.09;;;9.66;87.98
41703;BME280;861;48.808;9.006;2023-11-21T20:51:51;97320.75;;;9.53;88.85
41703;BME280;861;48.808;9.006;2023-11-21T20:54:17;97313.22;;;9.39;89.58
41703;BME280;861;48.808;9.006;2023-11-21T20:56:44;97316.84;;;9.50;89.39
41703;BME280;861;48.808;9.006;2023-11-21T20:59:11;97309.94;;;9.60;88.63
41703;BME280;861;48.808;9.006;2023-11-21T21:01:38;97319.00;;;9.38;90.40
41703;BME280;861;48.808;9.006;2023-11-21T21:04:05;97311.72;;;9.45;89.84
41703;BME280;861;48.808;9.006;2023-11-21T21:06:37;97322.88;;;9.70;88.90
41703;BME280;861;48.808;9.006;2023-11-21T21:09:04;97316.91;;;9.57;89.88
41703;BME280;861;48.808;9.006;2023-11-21T21:11:32;97324.94;;;9.47;90.09
41703;BME280;861;48.808;9.006;2023-11-21T21:13:59;97327.13;;;9.71;88.22
41703;BME280;861;48.808;9.006;2023-11-21T21:16:26;97320.16;;;9.70;88.20
41703;BME280;861;48.808;9.006;2023-11-21T21:18:57;97322.91;;;9.73;87.37
41703;BME280;861;48.808;9.006;2023-11-21T21:21:26;97333.50;;;9.49;88.46
41703;BME280;861;48.808;9.006;2023-11-21T21:23:59;97337.22;;;9.33;89.59
41703;BME280;861;48.808;9.006;2023-11-21T21:26:26;97331.81;;;9.37;89.88
41703;BME280;861;48.808;9.006;2023-11-21T21:28:57;97331.41;;;9.35;90.74
41703;BME280;861;48.808;9.006;2023-11-21T21:31:24;97323.94;;;9.62;88.32
41703;BME280;861;48.808;9.006;2023-11-21T21:33:51;97338.53;;;9.80;86.25
41703;BME280;861;48.808;9.006;2023-11-21T21:36:18;97333.53;;;9.52;87.77
41703;BME280;861;48.808;9.006;2023-11-21T21:38:46;97328.44;;;9.47;89.02
41703;BME280;861;48.808;9.006;2023-11-21T21:41:21;97329.22;;;9.48;88.42
41703;BME280;861;48.808;9.006;2023-11-21T21:43:48;97327.03;;;9.27;90.09
41703;BME280;861;48.808;9.006;2023-11-21T21:46:17;97328.84;;;9.49;88.54
41703;BME280;861;48.808;9.006;2023-11-21T21:48:45;97328.94;;;9.56;87.61
41703;BME280;861;48.808;9.006;2023-11-21T21:51:19;97332.06;;;9.58;87.88
41703;BME280;861;48.808;9.006;2023-11-21T21:53:47;97337.47;;;9.25;89.55
41703;BME280;861;48.808;9.006;2023-11-21T21:56:20;97331.28;;;9.58;87.96
41703;BME280;861;48.808;9.006;2023-11-21T21:58:47;97339.97;;;9.07;90.59
41703;BME280;861;48.808;9.006;2023-11-21T22:01:16;97338.00;;;9.38;87.96
41703;BME280;861;48.808;9.006;2023-11-21T22:03:43;97349.69;;;9.38;88.41
41703;BME280;861;48.808;9.006;2023-11-21T22:06:10;97343.44;;;9.34;88.55
41703;BME280;861;48.808;9.006;2023-11-21T22:08:39;97343.19;;;9.46;87.98
41703;BME280;861;48.808;9.006;2023-11-21T22:11:06;97353.38;;;9.23;88.45
41703;BME280;861;48.808;9.006;2023-11-21T22:13:33;97353.00;;;9.24;89.83
41703;BME280;861;48.808;9.006;2023-11-21T22:16:01;97350.00;;;9.03;90.99
41703;BME280;861;48.808;9.006;2023-11-21T22:18:28;97340.38;;;9.09;91.02
41703;BME280;861;48.808;9.006;2023-11-21T22:20:55;97342.00;;;9.14;92.02
41703;BME280;861;48.808;9.006;2023-11-21T22:23:22;97349.06;;;9.18;91.17
41703;BME280;861;48.808;9.006;2023-11-21T22:25:48;97359.19;;;9.21;91.55
41703;BME280;861;48.808;9.006;2023-11-21T22:28:15;97355.22;;;9.49;88.99
41703;BME280;861;48.808;9.006;2023-11-21T22:30:42;97354.00;;;9.72;87.29
41703;BME280;861;48.808;9.006;2023-11-21T22:33:09;97352.66;;;9.26;90.01
41703;BME280;861;48.808;9.006;2023-11-21T22:35:36;97362.84;;;9.36;89.65
41703;BME280;861;48.808;9.006;2023-11-21T22:38:05;97352.44;;;9.42;89.82
41703;BME280;861;48.808;9.006;2023-11-21T22:40:31;97355.16;;;9.42;89.48
41703;BME280;861;48.808;9.006;2023-11-21T22:42:58;97362.44;;;9.64;88.24
41703;BME280;861;48.808;9.006;2023-11-21T22:45:25;97355.59;;;9.77;87.95
41703;BME280;861;48.808;9.006;2023-11-21T22:47:52;97365.03;;;9.53;88.34
41703;BME280;861;48.808;9.006;2023-11-21T22:50:19;97367.69;;;9.50;90.03
41703;BME280;861;48.808;9.006;2023-11-21T22:52:45;97363.59;;;9.66;89.17
41703;BME280;861;48.808;9.006;2023-11-21T22:55:12;97364.66;;;9.58;89.03
41703;BME280;861;48.808;9.006;2023-11-21T22:57:41;97369.56;;;9.46;89.89
41703;BME280;861;48.808;9.006;2023-11-21T23:00:08;97369.34;;;9.91;87.12
41703;BME280;861;48.808;9.006;2023-11-21T23:02:38;97370.78;;;9.48;89.33
41703;BME280;861;48.808;9.006;2023-11-21T23:05:07;97376.13;;;9.41;90.19
41703;BME280;861;48.808;9.006;2023-11-21T23:07:36;97374.31;;;9.52;90.06
41703;BME280;861;48.808;9.006;2023-11-21T23:10:05;97380.88;;;9.48;91.31
41703;BME280;861;48.808;9.006;2023-11-21T23:12:36;97377.41;;;9.84;87.96
41703;BME280;861;48.808;9.006;2023-11-21T23:15:06;97381.03;;;9.62;89.52
41703;BME280;861;48.808;9.006;2023-11-21T23:17:37;97386.03;;;9.89;87.25
41703;BME280;861;48.808;9.006;2023-11-21T23:20:08;97385.44;;;9.73;88.68
41703;BME280;861;48.808;9.006;2023-11-21T23:22:37;97382.63;;;9.63;88.76
41703;BME280;861;48.808;9.006;2023-11-21T23:25:07;97389.88;;;9.55;90.25
41703;BME280;861;48.808;9.006;2023-11-21T23:27:35;97387.16;;;9.55;89.97
41703;BME280;861;48.808;9.006;2023-11-21T23:30:04;97396.69;;;9.72;89.94
41703;BME280;861;48.808;9.006;2023-11-21T23:32:36;97387.59;;;9.90;87.93
